• Join FlightAware (Why Join?)
  • Login
  • US Flag 
11:58PM EDT


 

Airport Tracker/Info


-or-


 

Live Flight TrackerFlight Track Log ✈ N117CC ✈ 03-May-2012 ✈ KSAC - KMRY

Flight Track Log - Related Links

Times and Time Zones

All times are in EDT time to prevent confusion due to time zone crossing. See the N117CC flight status page for this flight to view local times or setup timezone preferences in your user account.

Time Position Orientation Groundspeed Altitude Reporting Facility
EDT Latitude Longitude Course Direction KTS MPH feet Rate Location/Type
07:01PM 37.7500 -121.0667 189° South 273 314 8,700  Level Northern Cal TRACON
07:02PM 37.6667 -121.0833 202° Southwest 273 314 8,000 -540 Descending Northern Cal TRACON
07:03PM 37.6000 -121.1167 191° South 263 303 7,700 -600 Descending Northern Cal TRACON
07:04PM 37.5333 -121.1333 189° South 268 308 6,900 -720 Descending Northern Cal TRACON
07:05PM 37.4500 -121.1500 191° South 269 310 6,400 -540 Descending Northern Cal TRACON
07:06PM 37.3833 -121.1667 191° South 263 303 5,900 -240 Descending Northern Cal TRACON
07:07PM 37.3167 -121.1833 198° South 261 300 6,000  Climbing Northern Cal TRACON
07:08PM 37.2333 -121.2167 211° Southwest 270 311 5,900 -60 Descending Northern Cal TRACON
07:09PM 37.1667 -121.2667 202° Southwest 266 306 5,900  Level Northern Cal TRACON
07:10PM 37.1000 -121.3000 219° Southwest 267 307 5,900  Level Northern Cal TRACON
07:11PM 37.0500 -121.3500 202° Southwest 263 303 5,900  Level Northern Cal TRACON
07:12PM 36.9833 -121.3833 211° Southwest 261 300 5,900  Level Northern Cal TRACON
07:13PM 36.9167 -121.4333 211° Southwest 259 298 5,900  Level Northern Cal TRACON
07:14PM 36.8500 -121.4833 211° Southwest 260 299 5,900 -120 Level Northern Cal TRACON
07:15PM 36.7833 -121.5333 219° Southwest 260 299 5,700 -600 Descending Northern Cal TRACON
07:16PM 36.7333 -121.5833 219° Southwest 247 284 4,800 -840 Descending Northern Cal TRACON
07:17PM 36.6833 -121.6333 238° Southwest 232 267 4,200 -720 Descending Northern Cal TRACON
07:18PM 36.6500 -121.7000 219° Southwest 225 259 3,400 -900 Descending Northern Cal TRACON
07:19PM 36.6167 -121.7333 230° Southwest 181 208 2,500 -900 Descending Northern Cal TRACON
07:20PM 36.5833 -121.7833 270° West 148 170 1,600 -840 Descending Northern Cal TRACON
07:21PM 36.5833 -121.8167 270° West 126 145 900 -720 Descending Northern Cal TRACON